createdAt,value
2023-01-19T00:01:41.072Z,95.81
2023-01-19T00:05:08.669Z,95.80
2023-01-19T00:08:36.305Z,95.93
2023-01-19T00:12:03.350Z,95.84
2023-01-19T00:15:30.310Z,95.87
2023-01-19T00:18:57.654Z,96.05
2023-01-19T00:22:24.632Z,95.96
2023-01-19T00:25:51.795Z,95.97
2023-01-19T00:29:20.359Z,95.85
2023-01-19T00:32:47.569Z,95.99
2023-01-19T00:36:14.711Z,95.77
2023-01-19T00:39:41.967Z,95.79
2023-01-19T00:43:09.006Z,95.96
2023-01-19T00:46:36.059Z,95.96
2023-01-19T00:50:03.226Z,96.19
2023-01-19T00:53:32.658Z,95.97
2023-01-19T00:56:58.039Z,96.10
2023-01-19T01:00:26.281Z,96.12
2023-01-19T01:03:54.268Z,95.86
2023-01-19T01:07:21.421Z,96.27
2023-01-19T01:10:48.497Z,96.18
2023-01-19T01:14:16.060Z,96.16
2023-01-19T01:17:48.251Z,96.15
2023-01-19T01:21:15.532Z,96.26
2023-01-19T01:24:42.611Z,96.10
2023-01-19T01:28:11.118Z,96.40
2023-01-19T01:31:38.606Z,96.49
2023-01-19T01:35:06.140Z,96.34
2023-01-19T01:38:33.180Z,96.27
2023-01-19T01:42:00.093Z,96.25
2023-01-19T01:45:35.066Z,96.58
2023-01-19T01:49:05.747Z,96.41
2023-01-19T01:52:37.951Z,96.16
2023-01-19T01:56:08.628Z,96.44
2023-01-19T01:59:39.425Z,96.43
2023-01-19T02:03:06.956Z,96.25
2023-01-19T02:06:34.957Z,96.46
2023-01-19T02:10:20.112Z,96.35
2023-01-19T02:13:48.358Z,96.32
2023-01-19T02:17:15.777Z,96.34
2023-01-19T02:20:46.545Z,96.26
2023-01-19T02:24:14.547Z,96.20
2023-01-19T02:27:41.557Z,96.13
2023-01-19T02:31:08.655Z,96.20
2023-01-19T02:34:36.238Z,96.11
2023-01-19T02:38:05.022Z,96.03
2023-01-19T02:41:39.450Z,96.06
2023-01-19T02:45:09.609Z,95.99
2023-01-19T02:48:36.952Z,96.04
2023-01-19T02:52:04.388Z,95.97
2023-01-19T02:55:33.893Z,96.11
2023-01-19T02:59:07.304Z,95.97
2023-01-19T03:02:46.307Z,95.91
2023-01-19T03:06:25.404Z,95.78
2023-01-19T03:10:00.200Z,96.10
2023-01-19T03:13:35.212Z,95.86
2023-01-19T03:17:07.047Z,95.98
2023-01-19T03:20:35.048Z,96.14
2023-01-19T03:24:08.008Z,95.98
2023-01-19T03:27:40.952Z,95.92
2023-01-19T03:31:13.851Z,95.88
2023-01-19T03:34:43.258Z,96.11
2023-01-19T03:38:15.955Z,96.09
2023-01-19T03:41:44.713Z,95.69
2023-01-19T03:45:13.596Z,96.04
2023-01-19T03:48:42.329Z,95.91
2023-01-19T03:52:09.701Z,95.92
2023-01-19T03:55:38.258Z,95.95
2023-01-19T03:59:06.252Z,95.75
2023-01-19T04:02:33.662Z,96.09
2023-01-19T04:06:00.739Z,96.00
2023-01-19T04:09:27.883Z,95.98
2023-01-19T04:13:00.830Z,95.80
2023-01-19T04:16:29.070Z,95.80
2023-01-19T04:19:55.999Z,95.50
2023-01-19T04:23:22.934Z,95.80
2023-01-19T04:26:51.939Z,95.84
2023-01-19T04:30:19.719Z,95.62
2023-01-19T04:33:46.609Z,95.74
2023-01-19T04:37:14.227Z,95.60
2023-01-19T04:40:41.151Z,95.92
2023-01-19T04:44:08.417Z,95.79
2023-01-19T04:47:35.331Z,95.64
2023-01-19T04:51:02.324Z,95.88
2023-01-19T04:54:29.296Z,95.91
2023-01-19T04:57:56.258Z,95.76
2023-01-19T05:01:23.596Z,95.95
2023-01-19T05:04:51.168Z,95.91
2023-01-19T05:08:18.116Z,95.85
2023-01-19T05:11:45.470Z,95.97
2023-01-19T05:15:14.153Z,96.21
2023-01-19T05:18:41.932Z,95.90
2023-01-19T05:22:09.628Z,95.99
2023-01-19T05:25:38.232Z,95.98
2023-01-19T05:29:05.602Z,95.77
2023-01-19T05:32:32.618Z,96.13
2023-01-19T05:35:59.578Z,96.15
2023-01-19T05:39:26.853Z,96.12
2023-01-19T05:42:54.007Z,96.31
2023-01-19T05:46:21.055Z,96.24
2023-01-19T05:49:47.997Z,95.86
2023-01-19T05:53:15.049Z,96.10
2023-01-19T05:56:42.093Z,96.24
2023-01-19T06:00:11.607Z,96.14
2023-01-19T06:03:41.098Z,96.23
2023-01-19T06:07:09.228Z,96.16
2023-01-19T06:10:36.472Z,96.09
2023-01-19T06:14:03.441Z,95.91
2023-01-19T06:17:30.517Z,96.13
2023-01-19T06:20:59.640Z,96.27
2023-01-19T06:24:26.567Z,96.15
2023-01-19T06:27:53.563Z,95.91
2023-01-19T06:31:20.563Z,96.20
2023-01-19T06:34:47.718Z,96.10
2023-01-19T06:38:15.598Z,96.07
2023-01-19T06:41:43.159Z,96.25
2023-01-19T06:45:12.560Z,96.45
2023-01-19T06:48:39.538Z,96.35
2023-01-19T06:52:06.757Z,96.15
2023-01-19T06:55:35.739Z,96.27
2023-01-19T06:59:03.295Z,96.29
2023-01-19T07:02:30.481Z,96.26
2023-01-19T07:05:58.302Z,96.19
2023-01-19T07:09:25.902Z,96.32
2023-01-19T07:12:53.418Z,96.23
2023-01-19T07:16:20.883Z,96.06
2023-01-19T07:19:48.854Z,96.05
2023-01-19T07:23:16.345Z,95.91
2023-01-19T07:26:43.523Z,95.93
2023-01-19T07:30:12.556Z,95.82
2023-01-19T07:33:39.495Z,95.94
2023-01-19T07:37:06.428Z,96.05
2023-01-19T07:40:33.898Z,96.11
2023-01-19T07:44:00.836Z,96.31
2023-01-19T07:47:27.911Z,96.53
2023-01-19T07:50:54.827Z,96.19
2023-01-19T07:54:21.907Z,96.50
2023-01-19T07:57:52.011Z,96.37
2023-01-19T08:01:19.369Z,96.45
2023-01-19T08:04:49.064Z,96.37
2023-01-19T08:08:16.090Z,96.37
2023-01-19T08:11:42.999Z,96.53
2023-01-19T08:15:11.818Z,96.08
2023-01-19T08:18:38.863Z,96.23
2023-01-19T08:22:05.963Z,96.53
2023-01-19T08:25:37.879Z,96.15
2023-01-19T08:29:06.849Z,95.89
2023-01-19T08:32:33.802Z,95.86
2023-01-19T08:36:00.936Z,95.76
2023-01-19T08:39:28.474Z,95.59
2023-01-19T08:43:00.960Z,95.53
2023-01-19T08:46:28.347Z,95.36
2023-01-19T08:49:55.273Z,95.54
2023-01-19T08:53:23.875Z,95.30
2023-01-19T08:56:51.004Z,95.15
2023-01-19T09:00:19.885Z,94.93
2023-01-19T09:03:47.001Z,94.69
2023-01-19T09:07:14.174Z,94.39
2023-01-19T09:10:45.806Z,94.39
2023-01-19T09:14:13.004Z,94.21
2023-01-19T09:17:40.408Z,93.97
2023-01-19T09:21:08.455Z,93.90
2023-01-19T09:24:36.857Z,93.71
2023-01-19T09:28:04.120Z,93.87
2023-01-19T09:31:31.316Z,93.82
2023-01-19T09:34:58.429Z,93.82
2023-01-19T09:38:25.961Z,93.65
2023-01-19T09:42:03.634Z,93.72
2023-01-19T09:45:39.470Z,93.25
2023-01-19T09:49:13.943Z,93.06
2023-01-19T09:52:49.421Z,92.55
2023-01-19T09:56:19.375Z,92.70
2023-01-19T09:59:51.056Z,92.47
2023-01-19T10:03:20.875Z,92.07
2023-01-19T10:06:48.726Z,91.85
2023-01-19T10:10:23.534Z,91.98
2023-01-19T10:13:54.215Z,91.89
2023-01-19T10:17:32.285Z,91.94
2023-01-19T10:21:05.653Z,91.83
2023-01-19T10:24:39.664Z,91.57
2023-01-19T10:28:06.907Z,91.76
2023-01-19T10:31:37.356Z,91.33
2023-01-19T10:35:21.715Z,91.24
2023-01-19T10:38:49.881Z,91.33
2023-01-19T10:42:18.867Z,91.32
2023-01-19T10:45:52.319Z,90.91
2023-01-19T10:49:31.400Z,90.62
2023-01-19T10:53:01.257Z,90.72
2023-01-19T10:56:31.941Z,89.93
2023-01-19T10:59:59.749Z,89.94
2023-01-19T11:03:29.623Z,89.56
2023-01-19T11:07:14.631Z,89.52
2023-01-19T11:10:41.781Z,89.34
2023-01-19T11:14:14.984Z,89.12
2023-01-19T11:17:48.446Z,89.01
2023-01-19T11:21:17.957Z,88.83
2023-01-19T11:24:46.125Z,88.89
2023-01-19T11:28:21.736Z,88.83
2023-01-19T11:31:49.421Z,88.74
2023-01-19T11:35:37.846Z,88.89
2023-01-19T11:39:24.807Z,88.98
2023-01-19T11:42:52.156Z,88.91
2023-01-19T11:46:20.277Z,88.90
2023-01-19T11:49:52.405Z,88.99
2023-01-19T11:53:24.427Z,88.97
2023-01-19T11:56:53.243Z,88.91
2023-01-19T12:00:29.056Z,88.91
2023-01-19T12:04:02.808Z,88.30
2023-01-19T12:07:44.778Z,87.64
2023-01-19T12:11:30.120Z,88.03
2023-01-19T12:15:03.272Z,88.28
2023-01-19T12:18:35.099Z,87.99
2023-01-19T12:22:03.180Z,87.54
2023-01-19T12:25:37.589Z,87.10
2023-01-19T12:29:12.777Z,87.29
2023-01-19T12:32:39.802Z,87.60
2023-01-19T12:36:11.194Z,87.73
2023-01-19T12:39:50.618Z,87.29
2023-01-19T12:43:17.913Z,86.97
2023-01-19T12:46:47.087Z,86.57
2023-01-19T12:50:23.304Z,86.52
2023-01-19T12:53:56.113Z,86.53
2023-01-19T12:57:28.159Z,86.81
2023-01-19T13:01:16.191Z,86.64
2023-01-19T13:05:03.531Z,86.80
2023-01-19T13:09:01.994Z,87.26
2023-01-19T13:12:29.509Z,87.14
2023-01-19T13:15:58.300Z,87.03
2023-01-19T13:19:36.197Z,87.19
2023-01-19T13:23:24.646Z,87.19
2023-01-19T13:27:03.293Z,87.35
2023-01-19T13:30:35.489Z,87.12
2023-01-19T13:34:05.512Z,86.64
2023-01-19T13:37:39.203Z,86.73
2023-01-19T13:41:07.011Z,86.79
2023-01-19T13:44:39.577Z,86.88
2023-01-19T13:48:09.784Z,86.47
2023-01-19T13:51:36.872Z,86.28
2023-01-19T13:55:05.546Z,86.48
2023-01-19T13:58:33.154Z,86.76
2023-01-19T14:02:14.609Z,86.16
2023-01-19T14:05:44.037Z,86.50
2023-01-19T14:09:20.482Z,86.42
2023-01-19T14:12:59.090Z,86.26
2023-01-19T14:16:26.985Z,86.50
2023-01-19T14:19:55.557Z,86.66
2023-01-19T14:23:40.792Z,86.54
2023-01-19T14:27:19.262Z,86.60
2023-01-19T14:30:57.941Z,86.99
2023-01-19T14:34:37.082Z,87.21
2023-01-19T14:38:04.866Z,87.01
2023-01-19T14:41:39.066Z,87.26
2023-01-19T14:45:17.388Z,87.35
2023-01-19T14:48:51.881Z,87.48
2023-01-19T14:52:27.840Z,87.59
2023-01-19T14:55:59.192Z,87.68
2023-01-19T14:59:26.397Z,87.60
2023-01-19T15:02:53.352Z,87.71
2023-01-19T15:06:23.162Z,87.75
2023-01-19T15:09:51.304Z,87.86
2023-01-19T15:13:21.908Z,88.02
2023-01-19T15:16:50.426Z,88.21
2023-01-19T15:20:22.465Z,88.39
2023-01-19T15:23:49.529Z,88.57
2023-01-19T15:27:16.819Z,88.67
2023-01-19T15:30:43.823Z,88.78
2023-01-19T15:34:14.685Z,89.01
2023-01-19T15:37:41.902Z,88.88
2023-01-19T15:41:14.435Z,89.00
2023-01-19T15:44:41.474Z,89.06
2023-01-19T15:48:10.539Z,89.31
2023-01-19T15:51:38.863Z,89.28
2023-01-19T15:55:07.035Z,89.50
2023-01-19T15:58:34.291Z,89.60
2023-01-19T16:02:01.441Z,89.62
2023-01-19T16:05:42.019Z,89.47
2023-01-19T16:09:12.244Z,89.71
2023-01-19T16:12:37.953Z,90.01
2023-01-19T16:16:13.760Z,89.92
2023-01-19T16:19:40.951Z,89.91
2023-01-19T16:23:15.982Z,89.93
2023-01-19T16:26:43.260Z,90.13
2023-01-19T16:30:14.839Z,90.04
2023-01-19T16:33:41.945Z,90.22
2023-01-19T16:37:08.930Z,90.24
2023-01-19T16:40:36.106Z,90.36
2023-01-19T16:44:03.454Z,90.43
2023-01-19T16:47:31.103Z,90.62
2023-01-19T16:51:06.984Z,90.64
2023-01-19T16:54:34.637Z,90.77
2023-01-19T16:58:01.848Z,90.81
2023-01-19T17:01:30.542Z,91.16
2023-01-19T17:05:00.184Z,91.29
2023-01-19T17:08:27.631Z,91.31
2023-01-19T17:11:58.216Z,91.14
2023-01-19T17:15:25.677Z,91.33
2023-01-19T17:18:53.929Z,91.17
2023-01-19T17:22:21.492Z,91.20
2023-01-19T17:25:55.398Z,91.09
2023-01-19T17:29:22.613Z,91.12
2023-01-19T17:32:50.230Z,91.23
2023-01-19T17:36:21.150Z,91.79
2023-01-19T17:39:48.593Z,91.72
2023-01-19T17:43:15.691Z,91.81
2023-01-19T17:46:42.836Z,91.80
2023-01-19T17:50:11.630Z,91.85
2023-01-19T17:53:41.389Z,91.82
2023-01-19T17:57:08.349Z,91.86
2023-01-19T18:00:35.509Z,91.87
2023-01-19T18:04:02.657Z,91.81
2023-01-19T18:07:30.083Z,91.85
2023-01-19T18:10:58.234Z,92.08
2023-01-19T18:14:25.158Z,92.06
2023-01-19T18:17:52.273Z,92.35
2023-01-19T18:21:21.777Z,92.50
2023-01-19T18:24:49.229Z,92.50
2023-01-19T18:28:16.394Z,92.56
2023-01-19T18:31:43.861Z,92.76
2023-01-19T18:35:12.005Z,93.23
2023-01-19T18:38:39.440Z,93.38
2023-01-19T18:42:06.659Z,93.32
2023-01-19T18:45:33.878Z,92.81
2023-01-19T18:49:01.036Z,92.83
2023-01-19T18:52:28.074Z,93.11
2023-01-19T18:55:57.538Z,93.21
2023-01-19T18:59:23.364Z,93.20
2023-01-19T19:02:50.688Z,93.57
2023-01-19T19:06:20.834Z,93.57
2023-01-19T19:09:48.609Z,93.74
2023-01-19T19:13:17.269Z,93.67
2023-01-19T19:16:44.876Z,93.55
2023-01-19T19:20:14.590Z,93.54
2023-01-19T19:23:42.370Z,93.49
2023-01-19T19:27:13.949Z,93.26
2023-01-19T19:30:41.504Z,93.41
2023-01-19T19:34:09.445Z,93.31
2023-01-19T19:37:37.295Z,93.09
2023-01-19T19:41:09.269Z,93.32
2023-01-19T19:44:36.384Z,93.19
2023-01-19T19:48:04.246Z,93.24
2023-01-19T19:51:31.974Z,93.19
2023-01-19T19:55:00.039Z,93.26
2023-01-19T19:58:30.624Z,93.32
2023-01-19T20:01:59.895Z,93.38
2023-01-19T20:05:26.511Z,93.13
2023-01-19T20:08:56.940Z,93.14
2023-01-19T20:12:25.392Z,93.14
2023-01-19T20:15:54.338Z,93.23
2023-01-19T20:19:22.028Z,93.37
2023-01-19T20:22:50.053Z,93.15
2023-01-19T20:26:20.156Z,93.18
2023-01-19T20:29:51.923Z,93.21
2023-01-19T20:33:19.587Z,93.43
2023-01-19T20:36:49.915Z,93.33
2023-01-19T20:40:18.269Z,93.33
2023-01-19T20:43:46.109Z,93.21
2023-01-19T20:47:13.723Z,93.17
2023-01-19T20:50:40.792Z,93.31
2023-01-19T20:54:08.113Z,93.21
2023-01-19T20:57:35.719Z,93.11
2023-01-19T21:01:10.129Z,93.12
2023-01-19T21:04:37.911Z,93.31
2023-01-19T21:08:06.965Z,93.39
2023-01-19T21:11:33.247Z,93.42
2023-01-19T21:15:01.063Z,93.44
2023-01-19T21:18:29.514Z,93.72
2023-01-19T21:21:57.641Z,93.96
2023-01-19T21:25:25.515Z,94.09
2023-01-19T21:28:53.003Z,94.09
2023-01-19T21:32:21.402Z,94.12
2023-01-19T21:35:55.737Z,94.04
2023-01-19T21:39:23.620Z,93.97
2023-01-19T21:42:51.151Z,94.02
2023-01-19T21:46:21.827Z,94.13
2023-01-19T21:49:49.156Z,94.12
2023-01-19T21:53:16.239Z,94.11
2023-01-19T21:56:44.322Z,93.99
2023-01-19T22:00:13.406Z,94.10
2023-01-19T22:03:40.925Z,94.02
2023-01-19T22:07:08.023Z,94.03
2023-01-19T22:10:38.837Z,94.09
2023-01-19T22:14:06.079Z,94.11
2023-01-19T22:17:33.285Z,94.12
2023-01-19T22:21:10.219Z,93.90
2023-01-19T22:24:37.252Z,93.90
2023-01-19T22:28:04.295Z,93.84
2023-01-19T22:31:32.632Z,94.03
2023-01-19T22:34:59.723Z,93.89
2023-01-19T22:38:27.252Z,93.71
2023-01-19T22:41:54.191Z,93.54
2023-01-19T22:45:21.938Z,93.54
2023-01-19T22:48:49.674Z,93.69
2023-01-19T22:52:16.706Z,93.78
2023-01-19T22:55:43.638Z,93.87
2023-01-19T22:59:10.915Z,93.65
2023-01-19T23:02:37.944Z,93.75
2023-01-19T23:06:08.041Z,93.69
2023-01-19T23:09:35.606Z,93.75
2023-01-19T23:13:02.532Z,93.82
2023-01-19T23:16:29.595Z,93.86
2023-01-19T23:19:56.617Z,93.86
2023-01-19T23:23:23.881Z,93.61
2023-01-19T23:26:52.156Z,93.80
2023-01-19T23:30:20.423Z,93.61
2023-01-19T23:33:47.572Z,93.61
2023-01-19T23:37:15.729Z,93.54
2023-01-19T23:40:42.801Z,93.67
2023-01-19T23:44:09.906Z,93.44
2023-01-19T23:47:37.847Z,93.49
2023-01-19T23:51:10.298Z,93.62
2023-01-19T23:54:37.674Z,93.63
2023-01-19T23:58:04.603Z,93.56
